Time;durP1;ratioP1;P1;durP2;ratioP2;P2;SDS_P1;SDS_P2;PMS_P1;PMS_P2;Temp;Humidity;BMP_temperature;BMP_pressure;BME280_temperature;BME280_humidity;BME280_pressure;Samples;Min_cycle;Max_cycle;Signal;HPM_P1;HPM_P2
2023/12/30 00:03:19;;;;;;;2.60;0.60;;;;;;;17.30;62.55;100649.50;10520419;28;20289;-48
2023/12/30 00:08:20;;;;;;;2.40;0.80;;;;;;;17.29;62.29;100655.97;10511029;28;20302;-48
2023/12/30 00:13:20;;;;;;;2.03;0.70;;;;;;;17.30;61.62;100662.91;10530723;28;20769;-48
2023/12/30 00:18:21;;;;;;;4.65;1.02;;;;;;;17.30;60.83;100663.72;10519474;28;20067;-50
2023/12/30 00:23:21;;;;;;;1.05;0.90;;;;;;;17.32;61.10;100666.09;10533523;28;20027;-47
2023/12/30 00:28:21;;;;;;;2.20;0.73;;;;;;;17.29;61.73;100680.09;10531868;28;20070;-48
2023/12/30 00:33:22;;;;;;;1.67;0.70;;;;;;;17.29;62.00;100693.47;10533411;28;21123;-47
2023/12/30 00:38:22;;;;;;;1.53;0.60;;;;;;;17.30;62.49;100689.72;10532809;28;20278;-47
2023/12/30 00:43:22;;;;;;;0.93;0.40;;;;;;;17.31;61.95;100696.66;10532921;28;20753;-47
2023/12/30 00:48:23;;;;;;;2.37;0.60;;;;;;;17.31;61.49;100708.19;10532406;28;20277;-48
2023/12/30 00:53:23;;;;;;;1.43;0.63;;;;;;;17.28;61.50;100697.22;10532992;28;20277;-47
2023/12/30 00:58:24;;;;;;;1.07;0.60;;;;;;;17.32;60.73;100706.28;10531965;28;20278;-48
2023/12/30 01:03:24;;;;;;;1.10;0.55;;;;;;;17.30;61.59;100714.63;10532878;28;20278;-49
2023/12/30 01:08:24;;;;;;;1.07;0.60;;;;;;;17.31;62.26;100721.59;10531809;28;20163;-47
2023/12/30 01:13:25;;;;;;;1.47;0.80;;;;;;;17.31;61.76;100721.59;10532397;28;20382;-47
2023/12/30 01:18:25;;;;;;;3.30;0.60;;;;;;;17.31;61.94;100726.94;10513581;28;20123;-48
2023/12/30 01:23:26;;;;;;;1.40;0.63;;;;;;;17.31;61.62;100726.16;10532242;28;20028;-46
2023/12/30 01:28:27;;;;;;;2.65;0.60;;;;;;;17.31;61.08;100726.16;10531421;28;20278;-48
2023/12/30 01:33:27;;;;;;;0.90;0.50;;;;;;;17.27;61.76;100733.94;10531944;28;20028;-47
2023/12/30 01:38:27;;;;;;;1.40;0.57;;;;;;;17.29;61.50;100729.13;10535675;28;20024;-47
2023/12/30 01:43:29;;;;;;;2.00;0.80;;;;;;;17.29;61.37;100736.34;10539319;28;20690;-51
2023/12/30 01:48:30;;;;;;;1.10;0.52;;;;;;;17.28;62.20;100738.22;10539522;28;20347;-50
2023/12/30 01:53:32;;;;;;;1.40;0.50;;;;;;;17.27;62.06;100747.34;10520586;28;20031;-50
2023/12/30 01:58:33;;;;;;;1.60;0.60;;;;;;;17.28;60.92;100759.66;10520697;28;20670;-50
2023/12/30 02:03:33;;;;;;;1.55;0.50;;;;;;;17.29;60.72;100772.00;10520229;28;20028;-47
2023/12/30 02:08:34;;;;;;;0.75;0.52;;;;;;;17.29;60.55;100776.56;10532769;28;20566;-47
2023/12/30 02:13:34;;;;;;;1.33;0.60;;;;;;;17.28;60.93;100773.03;10523027;28;20031;-51
2023/12/30 02:18:34;;;;;;;2.73;0.80;;;;;;;17.30;61.76;100775.47;10538034;28;21065;-50
2023/12/30 02:23:35;;;;;;;1.43;0.50;;;;;;;17.31;61.05;100780.53;10537700;28;20278;-49
2023/12/30 02:28:35;;;;;;;1.60;0.57;;;;;;;17.30;60.61;100792.34;10519657;28;20270;-47
2023/12/30 02:33:35;;;;;;;1.87;0.70;;;;;;;17.27;61.66;100786.72;10537553;28;20689;-48
2023/12/30 02:38:36;;;;;;;1.33;0.63;;;;;;;17.25;61.33;100787.03;10537487;28;20282;-47
2023/12/30 02:43:52;;;;;;;0.87;0.57;;;;;;;17.27;60.94;100779.50;10536596;28;20364;-47
2023/12/30 02:48:52;;;;;;;0.85;0.40;;;;;;;17.29;62.07;100789.97;10536162;28;20351;-47
2023/12/30 02:53:53;;;;;;;1.13;0.50;;;;;;;17.29;60.89;100785.38;10536250;28;20020;-50
2023/12/30 02:58:57;;;;;;;1.27;0.60;;;;;;;17.28;61.11;100791.81;10536608;28;20290;-49
2023/12/30 03:03:59;;;;;;;1.98;0.70;;;;;;;17.31;60.44;100799.31;10535976;28;20273;-49
2023/12/30 03:08:59;;;;;;;1.25;0.50;;;;;;;17.29;60.79;100803.34;10508637;28;20067;-48
2023/12/30 03:14:00;;;;;;;1.10;0.60;;;;;;;17.31;61.53;100807.34;10524795;28;20024;-48
2023/12/30 03:19:00;;;;;;;1.17;0.60;;;;;;;17.31;60.55;100806.53;10535670;28;20049;-49
2023/12/30 03:24:01;;;;;;;1.10;0.43;;;;;;;17.32;61.29;100806.25;10517168;28;20044;-47
2023/12/30 03:29:01;;;;;;;1.17;0.40;;;;;;;17.30;61.72;100803.06;10535301;28;20027;-47
2023/12/30 03:34:01;;;;;;;1.38;0.52;;;;;;;17.32;60.36;100819.66;10534744;28;20305;-48
2023/12/30 03:39:04;;;;;;;1.13;0.50;;;;;;;17.31;61.40;100817.25;10535068;28;20103;-46
2023/12/30 03:44:04;;;;;;;1.33;0.70;;;;;;;17.29;60.99;100811.41;10534312;28;20028;-47
2023/12/30 03:49:04;;;;;;;2.03;0.73;;;;;;;17.30;61.48;100815.66;10534601;28;20464;-47
2023/12/30 03:54:04;;;;;;;0.90;0.40;;;;;;;17.30;61.37;100827.19;10534106;28;20278;-48
2023/12/30 03:59:05;;;;;;;0.73;0.30;;;;;;;17.27;61.04;100821.56;10534184;28;20619;-49
2023/12/30 04:04:05;;;;;;;1.20;0.40;;;;;;;17.25;60.82;100811.13;10533691;28;20284;-48
2023/12/30 04:09:05;;;;;;;1.10;0.50;;;;;;;17.29;61.45;100814.06;10533503;28;20343;-49
2023/12/30 04:14:06;;;;;;;1.40;0.60;;;;;;;17.32;61.77;100822.34;10533411;28;20343;-51
2023/12/30 04:19:06;;;;;;;1.37;0.60;;;;;;;17.27;61.10;100819.69;10533526;28;20347;-47
2023/12/30 04:24:06;;;;;;;2.22;0.65;;;;;;;17.29;61.49;100825.59;10533185;28;20266;-50
2023/12/30 04:29:07;;;;;;;0.70;0.50;;;;;;;17.31;61.18;100826.09;10533309;28;20131;-51
2023/12/30 04:34:07;;;;;;;2.55;0.60;;;;;;;17.28;61.91;100832.00;10533068;28;20028;-48
2023/12/30 04:39:08;;;;;;;1.00;0.40;;;;;;;17.30;60.65;100834.44;10532868;28;20129;-48
2023/12/30 04:44:08;;;;;;;0.65;0.30;;;;;;;17.31;61.43;100838.69;10532723;28;20027;-47
2023/12/30 04:49:10;;;;;;;0.93;0.30;;;;;;;17.31;60.36;100849.44;10532802;28;20475;-47
2023/12/30 04:54:10;;;;;;;1.08;0.55;;;;;;;17.30;61.29;100851.31;10531976;28;20281;-48
2023/12/30 04:59:11;;;;;;;0.88;0.40;;;;;;;17.30;60.47;100853.19;10514678;28;20024;-49
2023/12/30 05:04:12;;;;;;;0.85;0.45;;;;;;;17.33;60.72;100848.06;10532365;28;20020;-46
2023/12/30 05:09:14;;;;;;;0.87;0.40;;;;;;;17.30;60.45;100853.19;10521438;28;20120;-47
2023/12/30 05:14:15;;;;;;;1.38;0.38;;;;;;;17.31;60.98;100854.78;10528567;28;20281;-49
2023/12/30 05:19:16;;;;;;;0.90;0.43;;;;;;;17.31;61.41;100852.09;10540762;28;20031;-47
2023/12/30 05:24:16;;;;;;;1.92;0.30;;;;;;;17.29;61.33;100856.94;10540146;28;20028;-49
2023/12/30 05:29:16;;;;;;;1.10;0.38;;;;;;;17.33;60.44;100866.81;10519996;28;20020;-51
2023/12/30 05:34:17;;;;;;;0.90;0.50;;;;;;;17.36;61.66;100873.47;10516930;28;20032;-49
2023/12/30 05:39:17;;;;;;;1.00;0.50;;;;;;;17.30;60.12;100877.31;10533048;28;20035;-47
2023/12/30 05:44:18;;;;;;;0.52;0.40;;;;;;;17.28;60.85;100879.44;10503307;28;20282;-49
2023/12/30 05:49:18;;;;;;;1.27;0.50;;;;;;;17.31;61.69;100895.78;10508425;28;20426;-47
2023/12/30 05:54:18;;;;;;;1.20;0.50;;;;;;;17.29;60.38;100894.47;10534794;28;20286;-47
2023/12/30 05:59:19;;;;;;;1.03;0.30;;;;;;;17.29;61.71;100897.16;10528957;28;20808;-50
2023/12/30 06:04:19;;;;;;;0.95;0.40;;;;;;;17.29;60.55;100899.84;10513352;28;20354;-47
2023/12/30 06:09:20;;;;;;;1.57;0.40;;;;;;;17.28;60.58;100906.25;10506791;28;20052;-48
2023/12/30 06:14:20;;;;;;;0.90;0.30;;;;;;;17.26;61.36;100911.88;10530090;28;21013;-46
2023/12/30 06:19:20;;;;;;;1.90;0.50;;;;;;;17.26;60.82;100911.88;10500897;28;20056;-47
2023/12/30 06:24:22;;;;;;;1.73;0.30;;;;;;;17.25;61.45;100910.28;10512876;28;20266;-47
2023/12/30 06:29:23;;;;;;;3.15;0.70;;;;;;;17.25;62.48;100908.41;10508839;28;20305;-50
2023/12/30 06:34:23;;;;;;;3.03;0.70;;;;;;;17.24;62.64;100906.00;10493300;28;20065;-48
2023/12/30 06:39:23;;;;;;;3.58;0.60;;;;;;;17.27;63.59;100910.00;10527611;28;20028;-48
2023/12/30 06:44:25;;;;;;;3.00;0.60;;;;;;;17.27;61.70;100934.94;10510671;28;20519;-47
2023/12/30 06:49:25;;;;;;;4.38;0.80;;;;;;;17.33;62.40;100935.69;10524197;28;20311;-47
2023/12/30 06:54:26;;;;;;;3.53;0.73;;;;;;;17.51;62.56;100932.28;10514541;28;20536;-47
2023/12/30 06:59:26;;;;;;;7.35;1.23;;;;;;;17.47;63.40;100937.44;10512417;28;20380;-46
2023/12/30 07:04:27;;;;;;;11.73;1.52;;;;;;;17.45;63.42;100944.97;10525327;28;20024;-50
2023/12/30 07:09:27;;;;;;;11.07;0.98;;;;;;;17.39;61.52;100946.06;10532126;28;20143;-48
2023/12/30 07:14:29;;;;;;;7.30;0.98;;;;;;;17.51;60.95;100934.97;10534315;28;20032;-51
2023/12/30 07:19:29;;;;;;;9.60;0.93;;;;;;;17.52;61.49;100949.97;10533908;28;20052;-51
2023/12/30 07:24:30;;;;;;;4.07;1.00;;;;;;;17.51;61.81;100943.81;10528442;28;20131;-51
2023/12/30 07:29:30;;;;;;;2.78;0.88;;;;;;;17.37;61.82;100948.25;10525568;28;20020;-50
2023/12/30 07:34:31;;;;;;;6.13;0.88;;;;;;;17.24;62.02;100960.41;10516020;28;20056;-49
2023/12/30 07:39:32;;;;;;;24.20;2.13;;;;;;;17.18;62.45;100952.72;10508102;28;20469;-50
2023/12/30 07:44:37;;;;;;;42.47;3.08;;;;;;;17.19;63.59;100965.03;10533374;28;20032;-47
2023/12/30 07:49:38;;;;;;;18.30;1.45;;;;;;;17.27;61.06;100977.00;10532954;28;20401;-46
2023/12/30 07:54:38;;;;;;;17.03;2.07;;;;;;;17.28;61.58;100983.97;10532961;28;20069;-46
2023/12/30 07:59:40;;;;;;;30.63;2.53;;;;;;;17.40;62.35;100992.44;10533604;28;20073;-48
2023/12/30 08:04:43;;;;;;;29.75;3.08;;;;;;;17.38;62.44;100989.25;10533743;28;20425;-49
2023/12/30 08:09:44;;;;;;;32.50;4.30;;;;;;;17.33;64.07;101002.69;10511671;28;20511;-48
2023/12/30 08:14:44;;;;;;;33.53;3.73;;;;;;;17.33;64.16;101002.69;10531379;28;20034;-47
2023/12/30 08:19:44;;;;;;;38.70;5.40;;;;;;;17.32;65.02;100996.53;10520005;28;20024;-47
2023/12/30 08:24:45;;;;;;;16.83;2.47;;;;;;;17.28;65.94;101011.56;10498372;28;20387;-47
2023/12/30 08:29:45;;;;;;;20.30;3.27;;;;;;;17.29;65.46;101021.22;10532564;28;20269;-47
2023/12/30 08:34:45;;;;;;;31.23;4.13;;;;;;;17.28;65.86;101026.84;10532242;28;20353;-47
2023/12/30 08:39:46;;;;;;;25.30;5.03;;;;;;;17.22;64.89;101026.88;10532880;28;20103;-47
2023/12/30 08:44:46;;;;;;;31.20;4.30;;;;;;;17.06;65.08;101019.25;10532413;28;20320;-48
2023/12/30 08:49:46;;;;;;;30.27;4.03;;;;;;;17.04;65.88;101034.75;10532033;28;20012;-47
2023/12/30 08:54:47;;;;;;;32.50;5.80;;;;;;;17.08;64.39;101035.84;10531765;28;20281;-47
2023/12/30 08:59:48;;;;;;;30.00;4.40;;;;;;;17.06;64.54;101036.13;10532409;28;20293;-48
2023/12/30 09:04:48;;;;;;;26.83;3.53;;;;;;;17.05;65.03;101037.19;10531213;28;20274;-48
2023/12/30 09:09:48;;;;;;;24.87;5.63;;;;;;;17.03;65.01;101044.69;10532310;28;20545;-48
2023/12/30 09:14:49;;;;;;;25.60;3.83;;;;;;;17.01;65.24;101051.41;10532158;28;20266;-46
2023/12/30 09:19:49;;;;;;;20.88;2.55;;;;;;;17.01;63.81;101052.19;10513554;28;20489;-46
2023/12/30 09:24:49;;;;;;;14.87;3.13;;;;;;;17.03;64.56;101049.25;10513524;28;20608;-48
2023/12/30 09:29:50;;;;;;;24.57;4.63;;;;;;;17.00;63.18;101052.47;10532162;28;20273;-45
2023/12/30 09:34:50;;;;;;;13.95;2.40;;;;;;;17.05;63.34;101065.84;10531933;28;20640;-47
2023/12/30 09:39:51;;;;;;;6.35;1.77;;;;;;;17.04;62.99;101072.28;10531946;28;20020;-45
2023/12/30 09:44:52;;;;;;;20.23;3.30;;;;;;;17.04;63.48;101069.59;10531395;28;20061;-46
2023/12/30 09:49:52;;;;;;;11.65;1.80;;;;;;;17.06;64.33;101070.94;10531516;28;20028;-47
2023/12/30 09:54:53;;;;;;;10.27;1.90;;;;;;;17.10;62.71;101080.03;10531486;28;20482;-46
2023/12/30 09:59:54;;;;;;;12.27;2.37;;;;;;;17.14;62.85;101072.22;10535346;28;20020;-47
2023/12/30 10:04:55;;;;;;;10.60;1.85;;;;;;;17.15;62.67;101073.81;10520732;28;20281;-48
2023/12/30 10:09:55;;;;;;;6.78;2.17;;;;;;;17.21;62.63;101070.03;10519672;28;20472;-48
2023/12/30 10:14:56;;;;;;;8.85;1.90;;;;;;;17.20;63.29;101053.16;10538406;28;20031;-50
2023/12/30 10:19:56;;;;;;;10.50;1.70;;;;;;;17.20;63.25;101061.22;10538090;28;20016;-46
2023/12/30 10:24:56;;;;;;;13.35;3.45;;;;;;;17.19;62.75;101064.16;10538256;28;20024;-47
2023/12/30 10:29:57;;;;;;;5.90;1.40;;;;;;;17.16;62.38;101059.34;10519224;28;20049;-48
2023/12/30 10:34:57;;;;;;;4.68;1.30;;;;;;;17.22;61.98;101077.00;10537964;28;20331;-47
2023/12/30 10:39:58;;;;;;;4.80;1.13;;;;;;;17.17;61.93;101064.44;10536939;28;20099;-46
2023/12/30 10:44:59;;;;;;;4.38;1.23;;;;;;;17.16;63.23;101059.34;10515126;28;20055;-46
2023/12/30 10:50:04;;;;;;;3.23;1.00;;;;;;;17.17;63.11;101063.66;10509163;28;20483;-46
2023/12/30 10:55:15;;;;;;;6.20;1.23;;;;;;;17.15;61.61;101066.56;10537087;28;20282;-47
2023/12/30 11:00:20;;;;;;;4.85;1.42;;;;;;;17.12;62.03;101053.75;10535966;28;20023;-47
2023/12/30 11:05:29;;;;;;;4.38;0.98;;;;;;;17.13;62.25;101043.81;10536843;28;20391;-50
2023/12/30 11:10:32;;;;;;;13.13;1.73;;;;;;;17.14;62.02;101043.53;10496443;28;20063;-47
2023/12/30 11:15:32;;;;;;;6.35;1.58;;;;;;;17.16;63.11;101035.22;10536109;28;20024;-50
2023/12/30 11:20:35;;;;;;;7.40;1.97;;;;;;;17.16;61.52;101027.97;10535461;28;20475;-47
2023/12/30 11:25:37;;;;;;;2.65;1.10;;;;;;;17.20;62.14;101034.41;10535820;28;20282;-47
2023/12/30 11:30:38;;;;;;;3.35;0.90;;;;;;;17.21;61.82;101027.16;10535295;28;20108;-47
2023/12/30 11:35:38;;;;;;;4.83;1.00;;;;;;;17.19;62.47;101021.28;10535597;28;20161;-49
2023/12/30 11:40:42;;;;;;;5.97;0.93;;;;;;;17.19;61.34;101007.91;10534806;28;20777;-48
2023/12/30 11:45:43;;;;;;;5.38;1.10;;;;;;;17.20;62.13;101006.81;10517263;28;20080;-47
2023/12/30 11:50:44;;;;;;;2.20;0.90;;;;;;;17.17;61.78;101010.84;10533541;28;20020;-47
2023/12/30 11:55:44;;;;;;;9.20;1.73;;;;;;;17.13;62.53;101009.78;10530939;28;20047;-47
2023/12/30 12:00:45;;;;;;;21.80;2.33;;;;;;;17.36;61.36;101007.50;10520476;28;20379;-47
2023/12/30 12:05:45;;;;;;;14.65;2.25;;;;;;;17.43;61.57;100992.69;10525020;28;20403;-49
2023/12/30 12:10:46;;;;;;;8.43;1.55;;;;;;;17.49;62.96;100994.25;10526989;28;20391;-48
2023/12/30 12:15:48;;;;;;;9.50;1.98;;;;;;;17.40;62.15;100987.09;10515919;28;20475;-47
2023/12/30 12:20:49;;;;;;;10.25;1.35;;;;;;;17.38;62.66;100989.25;10515002;28;20111;-47
2023/12/30 12:25:49;;;;;;;14.20;5.68;;;;;;;17.40;61.91;100982.50;10533520;28;20463;-51
2023/12/30 12:30:50;;;;;;;5.95;2.42;;;;;;;17.44;61.24;100980.09;10533084;28;20028;-50
2023/12/30 12:35:50;;;;;;;9.35;2.33;;;;;;;17.45;61.05;100969.09;10532258;28;20024;-48
2023/12/30 12:40:51;;;;;;;8.63;2.33;;;;;;;17.44;62.44;100972.06;10532251;28;20039;-47
2023/12/30 12:45:51;;;;;;;7.55;2.33;;;;;;;17.40;60.95;100965.63;10533223;28;20278;-48
2023/12/30 12:50:55;;;;;;;6.63;1.77;;;;;;;17.40;61.80;100966.44;10514417;28;20055;-48
2023/12/30 12:55:55;;;;;;;7.80;1.95;;;;;;;17.34;61.11;100954.16;10520155;28;20024;-46
2023/12/30 13:00:56;;;;;;;8.27;1.80;;;;;;;17.33;61.37;100946.41;10532264;28;20467;-49
2023/12/30 13:05:57;;;;;;;5.43;1.80;;;;;;;17.29;62.27;100926.63;10532774;28;20027;-48
2023/12/30 13:11:00;;;;;;;7.72;1.90;;;;;;;17.26;62.49;100930.66;10532116;28;20040;-47
2023/12/30 13:16:00;;;;;;;12.63;2.92;;;;;;;17.19;62.88;100925.63;10532628;28;20359;-49
2023/12/30 13:21:05;;;;;;;5.53;1.77;;;;;;;17.16;61.95;100914.66;10531614;28;20024;-48
2023/12/30 13:26:06;;;;;;;8.82;2.25;;;;;;;17.15;62.90;100905.81;10532212;28;20036;-48
2023/12/30 13:31:06;;;;;;;14.55;2.58;;;;;;;17.14;63.71;100903.41;10531788;28;20425;-50
2023/12/30 13:36:11;;;;;;;10.10;2.67;;;;;;;17.11;63.75;100896.75;10538676;28;20441;-50
2023/12/30 13:41:14;;;;;;;11.43;3.53;;;;;;;17.12;63.54;100897.56;10539351;28;20294;-49
2023/12/30 13:46:41;;;;;;;14.60;2.50;;;;;;;17.11;62.38;100895.94;10539807;28;20028;-47
2023/12/30 13:51:44;;;;;;;11.00;2.70;;;;;;;17.15;63.34;100883.56;10538162;28;20487;-48
2023/12/30 13:56:47;;;;;;;10.60;2.92;;;;;;;17.18;62.67;100870.44;10512455;28;20031;-47
2023/12/30 14:01:48;;;;;;;12.73;2.50;;;;;;;17.22;63.12;100865.31;10537796;28;20028;-47
2023/12/30 14:06:48;;;;;;;15.80;1.97;;;;;;;17.22;63.38;100866.09;10538178;28;20015;-47
2023/12/30 14:11:55;;;;;;;16.10;3.28;;;;;;;17.12;63.55;100854.69;10519375;28;21096;-47
2023/12/30 14:16:58;;;;;;;12.77;5.07;;;;;;;17.11;63.34;100848.53;10537805;28;20394;-45
2023/12/30 14:21:58;;;;;;;23.15;6.40;;;;;;;17.12;63.78;100836.72;10519963;28;20028;-48
2023/12/30 14:27:00;;;;;;;8.43;3.43;;;;;;;17.26;63.41;100834.16;10538325;28;20078;-47
2023/12/30 14:32:00;;;;;;;19.13;3.95;;;;;;;17.35;62.60;100832.47;10537424;28;20270;-49
2023/12/30 14:37:01;;;;;;;12.77;3.10;;;;;;;17.33;61.87;100829.28;10537728;28;20415;-49
2023/12/30 14:42:01;;;;;;;24.00;3.97;;;;;;;17.34;62.02;100830.88;10537170;28;20289;-45
2023/12/30 14:47:01;;;;;;;17.42;4.40;;;;;;;17.31;61.24;100834.13;10536237;28;20024;-47
2023/12/30 14:52:02;;;;;;;10.75;3.95;;;;;;;17.31;60.73;100826.09;10536833;28;20050;-48
2023/12/30 14:57:06;;;;;;;16.58;3.65;;;;;;;17.33;61.40;100826.59;10536800;28;20428;-45
2023/12/30 15:02:06;;;;;;;14.68;3.75;;;;;;;17.32;60.77;100824.22;10518215;28;20019;-46
2023/12/30 15:07:08;;;;;;;17.10;4.10;;;;;;;17.32;60.21;100822.34;10536911;28;20046;-49
2023/12/30 15:12:09;;;;;;;12.20;4.45;;;;;;;17.42;59.72;100821.44;10535668;28;20051;-48
2023/12/30 15:17:10;;;;;;;16.27;4.35;;;;;;;17.46;59.90;100817.88;10536443;28;20406;-48
2023/12/30 15:22:10;;;;;;;30.08;4.50;;;;;;;17.48;60.39;100820.28;10535391;28;20028;-46
2023/12/30 15:27:11;;;;;;;11.38;3.00;;;;;;;17.49;61.27;100811.16;10535776;28;20100;-46
2023/12/30 15:32:11;;;;;;;11.63;3.17;;;;;;;17.43;60.63;100812.31;10535329;28;20027;-46
2023/12/30 15:37:12;;;;;;;19.50;3.55;;;;;;;17.49;60.98;100805.78;10535277;28;20269;-46
2023/12/30 15:42:12;;;;;;;11.60;2.63;;;;;;;17.39;61.34;100804.00;10534811;28;20103;-48
2023/12/30 15:47:12;;;;;;;16.48;3.47;;;;;;;17.45;62.05;100802.88;10534285;28;20274;-45
2023/12/30 15:52:13;;;;;;;18.83;3.90;;;;;;;17.40;60.98;100796.78;10533750;28;20023;-48
2023/12/30 15:57:13;;;;;;;25.25;2.92;;;;;;;17.36;61.47;100799.22;10486756;28;20286;-45
2023/12/30 16:02:13;;;;;;;25.10;4.40;;;;;;;17.42;63.00;100800.00;10534045;28;20020;-46
2023/12/30 16:07:14;;;;;;;21.03;4.40;;;;;;;17.42;63.08;100791.94;10534299;28;20036;-50
2023/12/30 16:12:14;;;;;;;36.88;8.75;;;;;;;17.63;64.27;100784.44;10533354;28;20297;-48
2023/12/30 16:17:15;;;;;;;15.73;4.40;;;;;;;17.59;63.36;100781.53;10520142;28;20032;-46
2023/12/30 16:22:15;;;;;;;19.30;4.25;;;;;;;17.35;62.31;100776.19;10533219;28;20471;-50
2023/12/30 16:27:16;;;;;;;640.60;413.83;;;;;;;17.29;63.30;100758.59;10533681;28;20510;-46
2023/12/30 16:32:16;;;;;;;255.17;136.13;;;;;;;17.20;65.34;100763.78;10533174;28;20427;-46
2023/12/30 16:37:16;;;;;;;220.33;112.63;;;;;;;17.26;63.72;100767.19;10533397;28;20281;-48
2023/12/30 16:42:17;;;;;;;180.60;94.18;;;;;;;17.34;63.69;100763.09;10533579;28;20278;-47
2023/12/30 16:47:17;;;;;;;153.43;78.10;;;;;;;17.29;62.28;100766.63;10532869;28;20054;-45
2023/12/30 16:52:19;;;;;;;125.70;64.72;;;;;;;17.20;62.36;100768.34;10531962;28;20364;-50
2023/12/30 16:57:19;;;;;;;114.53;56.35;;;;;;;17.20;61.33;100765.66;10532393;28;20028;-46
2023/12/30 17:02:19;;;;;;;91.85;48.63;;;;;;;17.21;61.02;100762.69;10531667;28;20023;-48
2023/12/30 17:07:20;;;;;;;82.07;42.53;;;;;;;17.20;60.75;100758.41;10530378;28;20249;-45
2023/12/30 17:12:21;;;;;;;60.28;33.38;;;;;;;17.23;61.10;100760.50;10537231;28;20449;-46
2023/12/30 17:17:21;;;;;;;55.60;28.50;;;;;;;17.23;59.11;100751.69;10537630;28;20024;-47
2023/12/30 17:22:22;;;;;;;43.80;23.25;;;;;;;17.23;60.36;100744.44;10537382;28;20463;-45
2023/12/30 17:27:22;;;;;;;30.80;17.88;;;;;;;17.28;58.58;100748.94;10537425;28;20034;-47
2023/12/30 17:32:25;;;;;;;32.45;16.23;;;;;;;17.30;59.67;100738.75;10537597;28;20026;-46
2023/12/30 17:37:25;;;;;;;30.45;15.23;;;;;;;17.33;59.18;100748.88;10538531;28;20028;-45
2023/12/30 17:42:26;;;;;;;20.07;11.33;;;;;;;17.37;57.83;100741.88;10536698;28;20020;-47
2023/12/30 17:47:26;;;;;;;20.53;10.40;;;;;;;17.40;57.61;100749.31;10536611;28;20282;-46
2023/12/30 17:52:26;;;;;;;17.57;7.80;;;;;;;17.42;57.76;100741.03;10524510;28;20646;-46
2023/12/30 17:57:27;;;;;;;14.40;7.27;;;;;;;17.58;57.53;100745.09;10536873;28;20277;-49
2023/12/30 18:02:27;;;;;;;12.50;5.60;;;;;;;17.61;59.12;100739.16;10537053;28;20660;-44
2023/12/30 18:07:27;;;;;;;11.55;5.32;;;;;;;17.81;58.12;100733.56;10537818;28;20372;-48
2023/12/30 18:12:28;;;;;;;11.90;4.32;;;;;;;17.75;59.08;100718.59;10535731;28;20040;-45
2023/12/30 18:17:30;;;;;;;10.93;4.20;;;;;;;17.77;57.21;100723.72;10538745;28;20020;-44
2023/12/30 18:22:30;;;;;;;9.80;3.90;;;;;;;17.61;58.84;100709.66;10536436;28;20070;-46
2023/12/30 18:27:31;;;;;;;9.87;3.63;;;;;;;17.61;58.63;100706.97;10538232;28;20039;-47
2023/12/30 18:32:31;;;;;;;8.20;3.45;;;;;;;17.58;57.32;100696.03;10537615;28;20266;-46
2023/12/30 18:37:32;;;;;;;13.03;4.00;;;;;;;17.50;57.51;100692.91;10519623;28;20024;-44
2023/12/30 18:42:32;;;;;;;6.65;3.63;;;;;;;17.48;59.45;100686.25;10536915;28;20463;-45
2023/12/30 18:47:32;;;;;;;5.95;2.60;;;;;;;17.44;58.73;100677.19;10537453;28;20024;-45
2023/12/30 18:52:33;;;;;;;5.57;2.90;;;;;;;17.46;59.27;100667.78;10536967;28;20016;-47
2023/12/30 18:57:33;;;;;;;6.90;2.80;;;;;;;17.37;58.35;100663.34;10537188;28;20054;-47
2023/12/30 19:02:33;;;;;;;5.47;2.83;;;;;;;17.32;58.37;100656.19;10518248;28;20362;-46
2023/12/30 19:07:34;;;;;;;7.73;3.00;;;;;;;17.32;57.82;100645.47;10518387;28;20035;-45
2023/12/30 19:12:34;;;;;;;6.30;3.03;;;;;;;17.51;58.60;100642.78;10531672;28;20367;-46
2023/12/30 19:17:34;;;;;;;6.32;3.05;;;;;;;17.45;58.66;100631.34;10524567;28;20290;-44
2023/12/30 19:22:34;;;;;;;7.23;3.00;;;;;;;17.59;58.62;100628.72;10533961;28;20073;-44
2023/12/30 19:27:35;;;;;;;5.10;1.90;;;;;;;17.66;58.70;100609.59;10534914;28;20281;-45
2023/12/30 19:32:35;;;;;;;5.82;2.92;;;;;;;17.53;58.20;100603.88;10513893;28;20313;-48
2023/12/30 19:37:36;;;;;;;9.43;2.93;;;;;;;17.47;59.26;100597.00;10527282;28;20028;-46
2023/12/30 19:42:36;;;;;;;6.80;3.35;;;;;;;17.38;60.17;100585.31;10507720;28;20293;-47
2023/12/30 19:47:36;;;;;;;9.50;3.07;;;;;;;17.37;59.14;100578.38;10513381;28;20107;-46
2023/12/30 19:52:37;;;;;;;4.23;2.27;;;;;;;17.35;60.13;100580.56;10509925;28;20285;-46
2023/12/30 19:57:37;;;;;;;3.83;2.13;;;;;;;17.34;59.14;100573.59;10516407;28;20836;-45
2023/12/30 20:02:38;;;;;;;4.82;2.03;;;;;;;17.31;60.28;100565.34;10504173;28;20039;-46
2023/12/30 20:07:40;;;;;;;4.47;1.83;;;;;;;17.32;60.59;100557.03;10515370;28;20059;-46
2023/12/30 20:12:40;;;;;;;7.20;2.72;;;;;;;17.25;59.53;100562.72;10526795;28;20749;-46
2023/12/30 20:17:40;;;;;;;8.55;2.42;;;;;;;17.21;60.85;100560.94;10533619;28;20020;-45
2023/12/30 20:22:41;;;;;;;8.87;2.50;;;;;;;17.22;59.44;100555.28;10533492;28;20035;-45
2023/12/30 20:27:41;;;;;;;7.40;2.42;;;;;;;17.24;60.69;100558.47;10501549;28;20801;-46
2023/12/30 20:32:41;;;;;;;5.20;2.00;;;;;;;17.24;60.03;100553.09;10504865;28;20016;-47
2023/12/30 20:37:42;;;;;;;6.37;2.67;;;;;;;17.23;60.33;100540.00;10487851;28;20020;-46
2023/12/30 20:42:42;;;;;;;4.63;2.03;;;;;;;17.22;59.51;100536.53;10518212;28;20285;-44
2023/12/30 20:47:42;;;;;;;7.05;2.13;;;;;;;17.25;59.56;100525.22;10532811;28;20020;-47
2023/12/30 20:52:43;;;;;;;5.13;1.90;;;;;;;17.23;59.83;100515.88;10533007;28;20024;-47
2023/12/30 20:57:44;;;;;;;3.95;2.30;;;;;;;17.25;60.28;100514.50;10532733;28;20487;-46
2023/12/30 21:02:44;;;;;;;4.72;1.83;;;;;;;17.25;60.32;100502.97;10533074;28;20078;-46
2023/12/30 21:07:44;;;;;;;4.30;1.63;;;;;;;17.25;60.21;100497.63;10532235;28;20035;-46
2023/12/30 21:12:45;;;;;;;5.45;2.08;;;;;;;17.27;60.57;100476.69;10532292;28;20024;-45
2023/12/30 21:17:45;;;;;;;4.10;1.45;;;;;;;17.25;60.83;100482.34;10532116;28;20077;-46
2023/12/30 21:22:46;;;;;;;4.27;1.90;;;;;;;17.25;59.88;100474.31;10532323;28;20012;-45
2023/12/30 21:27:46;;;;;;;4.40;1.80;;;;;;;17.29;59.74;100468.38;10531951;28;20282;-45
2023/12/30 21:32:48;;;;;;;3.67;1.90;;;;;;;17.28;59.24;100462.19;10532245;28;20270;-47
2023/12/30 21:37:49;;;;;;;5.70;2.53;;;;;;;17.29;59.47;100458.47;10531608;28;20266;-47
2023/12/30 21:42:49;;;;;;;2.90;1.77;;;;;;;17.31;59.50;100450.91;10532049;28;20127;-47
2023/12/30 21:47:50;;;;;;;3.28;1.17;;;;;;;17.32;60.33;100446.34;10531487;28;20386;-46
2023/12/30 21:52:51;;;;;;;4.03;1.75;;;;;;;17.32;60.51;100443.69;10531844;28;20455;-46
2023/12/30 21:57:52;;;;;;;3.53;1.58;;;;;;;17.29;60.56;100441.59;10538940;28;20024;-46
2023/12/30 22:02:52;;;;;;;4.33;1.70;;;;;;;17.27;60.01;100416.94;10539368;28;20020;-46
2023/12/30 22:07:52;;;;;;;3.60;1.10;;;;;;;17.32;59.20;100408.84;10538544;28;20280;-46
2023/12/30 22:12:54;;;;;;;3.35;1.85;;;;;;;17.30;59.71;100400.31;10531805;28;20645;-45
2023/12/30 22:17:55;;;;;;;1.88;1.23;;;;;;;17.32;59.84;100388.19;10538426;28;20035;-46
2023/12/30 22:22:56;;;;;;;3.05;1.33;;;;;;;17.32;60.07;100377.47;10538460;28;20132;-46
2023/12/30 22:27:56;;;;;;;2.13;1.27;;;;;;;17.33;60.45;100380.94;10537930;28;20020;-47
2023/12/30 22:32:57;;;;;;;1.93;1.33;;;;;;;17.30;60.06;100376.19;10538011;28;20270;-46
2023/12/30 22:37:57;;;;;;;2.72;1.00;;;;;;;17.30;59.17;100368.16;10537454;28;20274;-46
2023/12/30 22:42:57;;;;;;;2.85;1.17;;;;;;;17.30;60.27;100358.22;10537791;28;20544;-45
2023/12/30 22:47:58;;;;;;;6.97;1.63;;;;;;;17.32;59.31;100365.97;10536994;28;20456;-46
2023/12/30 22:52:58;;;;;;;2.70;1.10;;;;;;;17.33;60.69;100370.22;10537632;28;20278;-47
2023/12/30 22:57:58;;;;;;;2.77;1.33;;;;;;;17.33;60.54;100357.63;10536848;28;20361;-46